CMA-CGM Fort Saint Pierre — FQFM — position and weather

sailwx.info

Track history (hours):
 
Tides and Currents Weather Stations Pressure Air Temp Water Temp Dewpoint Dewpoint Depression Visibility Wind Speed Wind Dir Waves Ship Positions

CMA-CGM Fort Saint Pierre

Last reported at 2014-Jul-29 22:31 UTC. Time now 2014-Jul-30 00:54 UTC.
Position N 49°26' E 000°35'.

Length 197 m; beam 30 m.

Type: Ship (hazmat cat A). MMSI: 226328000.

Date/timePositionNaut miles runAvg speedWind from/ knotsBaromVisibWave heightAir tempDewpointWater temp
2014-Jul-29 22:31N 49°26' E 000°35'10 9.9
2014-Jul-29 21:33N 49°26' E 000°20'1313.4
2014-Jul-29 20:34N 49°28' W 000°00'9 8.9
2014-Jul-29 19:34N 49°33' W 000°11'1212.2
2014-Jul-29 18:33N 49°45' W 000°10'1312.5
2014-Jul-29 17:29N 49°59' W 000°10'1112.5
2014-Jul-29 16:34N 50°10' W 000°09'1413.1
2014-Jul-29 15:31N 50°23' W 000°05'1313.5
2014-Jul-29 14:33N 50°30' E 000°13'1413.7
2014-Jul-29 13:33N 50°34' E 000°33'1413.8
2014-Jul-29 12:33N 50°42' E 000°51'1413.7
2014-Jul-29 11:33N 50°50' E 001°08'1212.4
2014-Jul-29 10:33N 50°58' E 001°23'1313.2
2014-Jul-29 09:34N 51°07' E 001°39'1312.8
2014-Jul-29 08:33N 51°03' E 001°59'8 7.5
2014-Jul-29 07:29N 51°01' E 002°11'0 0.0
2014-Jul-29 06:28N 51°01' E 002°11'0 0.0
2014-Jul-29 05:31N 51°01' E 002°11'0 0.0
2014-Jul-29 04:13N 51°01' E 002°11'0 0.0
2014-Jul-29 03:28N 51°01' E 002°11'0 0.0
2014-Jul-29 02:31N 51°01' E 002°11'0 0.0
2014-Jul-29 01:31N 51°01' E 002°11'0 0.0
2014-Jul-29 00:25N 51°01' E 002°11'0 0.0
2014-Jul-28 23:31N 51°01' E 002°11'0 0.0
2014-Jul-28 21:31N 51°01' E 002°11'0 0.0
2014-Jul-28 18:25N 51°01' E 002°11'0 0.0
2014-Jul-28 17:31N 51°01' E 002°11'0 0.0
2014-Jul-28 16:16N 51°01' E 002°11'0 0.0
2014-Jul-28 15:22N 51°01' E 002°11'0 0.0
2014-Jul-28 14:31N 51°01' E 002°11'0 0.0
2014-Jul-28 12:10N 51°01' E 002°11'0 0.0
2014-Jul-28 11:28N 51°01' E 002°11'0 0.0
2014-Jul-28 10:31N 51°01' E 002°11'0 0.0
2014-Jul-28 09:31N 51°01' E 002°11'0 0.0
2014-Jul-28 08:28N 51°01' E 002°11'0 0.0
2014-Jul-28 07:31N 51°01' E 002°11'0 0.0
2014-Jul-28 06:16N 51°01' E 002°11'0 0.0
2014-Jul-28 05:28N 51°01' E 002°11'0 0.0
2014-Jul-28 04:31N 51°01' E 002°11'0 0.0
2014-Jul-28 03:31N 51°01' E 002°11'0 0.4
2014-Jul-28 02:34N 51°01' E 002°11'1111.0
2014-Jul-28 01:33N 51°03' E 001°53'1312.2
2014-Jul-28 00:31N 50°57' E 001°35'1515.9
2014-Jul-27 23:33N 50°44' E 001°24'1818.1
2014-Jul-27 22:33N 50°32' E 001°03'2820.3
2014-Jul-27 21:11N 50°22' E 000°22'1321.1
2014-Jul-27 20:33N 50°20' E 000°02'2320.8
2014-Jul-27 19:26N 50°12' W 000°33'1920.4
2014-Jul-27 18:29N 50°07' W 001°03'5919.0
2014-Jul-27 15:22N 49°53' W 002°32'  
2014-Jul-24 23:19N 39°49' W 027°11'1418.6
2014-Jul-24 22:34N 39°41' W 027°26'1918.6
2014-Jul-24 21:34N 39°29' W 027°45'1919.2
2014-Jul-24 20:34N 39°18' W 028°05'1919.3
2014-Jul-24 19:34N 39°09' W 028°27'1919.3
2014-Jul-24 18:33N 39°01' W 028°49'1919.3
2014-Jul-24 17:34N 38°52' W 029°11'2019.5
2014-Jul-24 16:33N 38°43' W 029°34'1919.3
2014-Jul-24 15:33N 38°34' W 029°56'1919.0
2014-Jul-24 14:34N 38°26' W 030°17'1919.4
2014-Jul-24 13:33N 38°17' W 030°39'2119.1
2014-Jul-24 12:28N 38°07' W 031°03'1819.3
2014-Jul-24 11:32N 37°59' W 031°23'1919.1
2014-Jul-24 10:33N 37°50' W 031°44'2119.2
2014-Jul-24 09:26N 37°39' W 032°07'  
2014-Jul-20 01:28N 16°14' W 061°32'0 0.4
2014-Jul-20 00:32N 16°14' W 061°33'  
Track history (hours):
 
Tides and Currents Weather Stations Pressure Air Temp Water Temp Dewpoint Dewpoint Depression Visibility Wind Speed Wind Dir Waves Ship Positions

CMA-CGM Fort Saint Pierre

Last reported at 2014-Jul-29 22:31 UTC. Time now 2014-Jul-30 00:54 UTC.
Position N 49°26' E 000°35'.

Length 197 m; beam 30 m.

Type: Ship (hazmat cat A). MMSI: 226328000.

Date/timePositionNaut miles runAvg speedWind from/ knotsBaromVisibWave heightAir tempDewpointWater temp
2014-Jul-29 22:31N 49°26' E 000°35'10 9.9
2014-Jul-29 21:33N 49°26' E 000°20'1313.4
2014-Jul-29 20:34N 49°28' W 000°00'9 8.9
2014-Jul-29 19:34N 49°33' W 000°11'1212.2
2014-Jul-29 18:33N 49°45' W 000°10'1312.5
2014-Jul-29 17:29N 49°59' W 000°10'1112.5
2014-Jul-29 16:34N 50°10' W 000°09'1413.1
2014-Jul-29 15:31N 50°23' W 000°05'1313.5
2014-Jul-29 14:33N 50°30' E 000°13'1413.7
2014-Jul-29 13:33N 50°34' E 000°33'1413.8
2014-Jul-29 12:33N 50°42' E 000°51'1413.7
2014-Jul-29 11:33N 50°50' E 001°08'1212.4
2014-Jul-29 10:33N 50°58' E 001°23'1313.2
2014-Jul-29 09:34N 51°07' E 001°39'1312.8
2014-Jul-29 08:33N 51°03' E 001°59'8 7.5
2014-Jul-29 07:29N 51°01' E 002°11'0 0.0
2014-Jul-29 06:28N 51°01' E 002°11'0 0.0
2014-Jul-29 05:31N 51°01' E 002°11'0 0.0
2014-Jul-29 04:13N 51°01' E 002°11'0 0.0
2014-Jul-29 03:28N 51°01' E 002°11'0 0.0
2014-Jul-29 02:31N 51°01' E 002°11'0 0.0
2014-Jul-29 01:31N 51°01' E 002°11'0 0.0
2014-Jul-29 00:25N 51°01' E 002°11'0 0.0
2014-Jul-28 23:31N 51°01' E 002°11'0 0.0
2014-Jul-28 21:31N 51°01' E 002°11'0 0.0
2014-Jul-28 18:25N 51°01' E 002°11'0 0.0
2014-Jul-28 17:31N 51°01' E 002°11'0 0.0
2014-Jul-28 16:16N 51°01' E 002°11'0 0.0
2014-Jul-28 15:22N 51°01' E 002°11'0 0.0
2014-Jul-28 14:31N 51°01' E 002°11'0 0.0
2014-Jul-28 12:10N 51°01' E 002°11'0 0.0
2014-Jul-28 11:28N 51°01' E 002°11'0 0.0
2014-Jul-28 10:31N 51°01' E 002°11'0 0.0
2014-Jul-28 09:31N 51°01' E 002°11'0 0.0
2014-Jul-28 08:28N 51°01' E 002°11'0 0.0
2014-Jul-28 07:31N 51°01' E 002°11'0 0.0
2014-Jul-28 06:16N 51°01' E 002°11'0 0.0
2014-Jul-28 05:28N 51°01' E 002°11'0 0.0
2014-Jul-28 04:31N 51°01' E 002°11'0 0.0
2014-Jul-28 03:31N 51°01' E 002°11'0 0.4
2014-Jul-28 02:34N 51°01' E 002°11'1111.0
2014-Jul-28 01:33N 51°03' E 001°53'1312.2
2014-Jul-28 00:31N 50°57' E 001°35'1515.9
2014-Jul-27 23:33N 50°44' E 001°24'1818.1
2014-Jul-27 22:33N 50°32' E 001°03'2820.3
2014-Jul-27 21:11N 50°22' E 000°22'1321.1
2014-Jul-27 20:33N 50°20' E 000°02'2320.8
2014-Jul-27 19:26N 50°12' W 000°33'1920.4
2014-Jul-27 18:29N 50°07' W 001°03'5919.0
2014-Jul-27 15:22N 49°53' W 002°32'  
2014-Jul-24 23:19N 39°49' W 027°11'1418.6
2014-Jul-24 22:34N 39°41' W 027°26'1918.6
2014-Jul-24 21:34N 39°29' W 027°45'1919.2
2014-Jul-24 20:34N 39°18' W 028°05'1919.3
2014-Jul-24 19:34N 39°09' W 028°27'1919.3
2014-Jul-24 18:33N 39°01' W 028°49'1919.3
2014-Jul-24 17:34N 38°52' W 029°11'2019.5
2014-Jul-24 16:33N 38°43' W 029°34'1919.3
2014-Jul-24 15:33N 38°34' W 029°56'1919.0
2014-Jul-24 14:34N 38°26' W 030°17'1919.4
2014-Jul-24 13:33N 38°17' W 030°39'2119.1
2014-Jul-24 12:28N 38°07' W 031°03'1819.3
2014-Jul-24 11:32N 37°59' W 031°23'1919.1
2014-Jul-24 10:33N 37°50' W 031°44'2119.2
2014-Jul-24 09:26N 37°39' W 032°07'  
2014-Jul-20 01:28N 16°14' W 061°32'0 0.4
2014-Jul-20 00:32N 16°14' W 061°33'  

Dump ship's entire track history